sensor_id;sensor_type;location;lat;lon;timestamp;pressure;altitude;pressure_sealevel;temperature;humidity
50867;BME280;36839;51.946;21.002;2024-01-11T00:01:09;100959.41;;;-6.51;100.00
50867;BME280;36839;51.946;21.002;2024-01-11T00:04:15;100949.70;;;-6.49;100.00
50867;BME280;36839;51.946;21.002;2024-01-11T00:07:39;100942.41;;;-6.46;100.00
50867;BME280;36839;51.946;21.002;2024-01-11T00:10:52;100927.96;;;-6.44;100.00
50867;BME280;36839;51.946;21.002;2024-01-11T00:16:50;100920.55;;;-6.40;100.00
50867;BME280;36839;51.946;21.002;2024-01-11T00:20:08;100915.08;;;-6.39;100.00
50867;BME280;36839;51.946;21.002;2024-01-11T00:22:57;100893.30;;;-6.38;100.00
50867;BME280;36839;51.946;21.002;2024-01-11T00:25:58;100886.84;;;-6.36;100.00
50867;BME280;36839;51.946;21.002;2024-01-11T00:28:33;100884.34;;;-6.34;100.00
50867;BME280;36839;51.946;21.002;2024-01-11T00:31:18;100881.05;;;-6.33;100.00
50867;BME280;36839;51.946;21.002;2024-01-11T00:33:59;100877.16;;;-6.30;100.00
50867;BME280;36839;51.946;21.002;2024-01-11T00:36:50;100868.40;;;-6.25;100.00
50867;BME280;36839;51.946;21.002;2024-01-11T00:39:24;100871.02;;;-6.18;100.00
50867;BME280;36839;51.946;21.002;2024-01-11T00:41:59;100876.08;;;-6.13;100.00
50867;BME280;36839;51.946;21.002;2024-01-11T00:44:58;100884.98;;;-6.05;100.00
50867;BME280;36839;51.946;21.002;2024-01-11T00:47:36;100889.63;;;-5.99;100.00
50867;BME280;36839;51.946;21.002;2024-01-11T00:50:23;100878.65;;;-5.97;100.00
50867;BME280;36839;51.946;21.002;2024-01-11T00:53:20;100877.57;;;-5.95;100.00
50867;BME280;36839;51.946;21.002;2024-01-11T00:55:57;100879.95;;;-5.92;100.00
50867;BME280;36839;51.946;21.002;2024-01-11T00:58:50;100873.52;;;-5.89;100.00
50867;BME280;36839;51.946;21.002;2024-01-11T01:01:51;100870.75;;;-5.88;100.00
50867;BME280;36839;51.946;21.002;2024-01-11T01:04:46;100876.27;;;-5.86;100.00
50867;BME280;36839;51.946;21.002;2024-01-11T01:07:38;100882.45;;;-5.81;100.00
50867;BME280;36839;51.946;21.002;2024-01-11T01:11:07;100889.14;;;-5.74;100.00
50867;BME280;36839;51.946;21.002;2024-01-11T01:13:53;100888.53;;;-5.62;100.00
50867;BME280;36839;51.946;21.002;2024-01-11T01:16:41;100890.11;;;-5.55;100.00
50867;BME280;36839;51.946;21.002;2024-01-11T01:19:34;100899.68;;;-5.44;100.00
50867;BME280;36839;51.946;21.002;2024-01-11T01:22:32;100912.20;;;-5.36;100.00
50867;BME280;36839;51.946;21.002;2024-01-11T01:25:23;100906.48;;;-5.30;100.00
50867;BME280;36839;51.946;21.002;2024-01-11T01:27:58;100897.59;;;-5.29;100.00
50867;BME280;36839;51.946;21.002;2024-01-11T01:33:58;100869.20;;;-5.34;100.00
50867;BME280;36839;51.946;21.002;2024-01-11T01:37:35;100868.55;;;-5.38;100.00
50867;BME280;36839;51.946;21.002;2024-01-11T01:40:16;100883.60;;;-5.36;100.00
50867;BME280;36839;51.946;21.002;2024-01-11T01:42:54;100888.98;;;-5.36;100.00
50867;BME280;36839;51.946;21.002;2024-01-11T01:45:57;100878.36;;;-5.39;100.00
50867;BME280;36839;51.946;21.002;2024-01-11T01:48:48;100884.39;;;-5.40;100.00
50867;BME280;36839;51.946;21.002;2024-01-11T01:51:45;100889.89;;;-5.39;100.00
50867;BME280;36839;51.946;21.002;2024-01-11T01:54:32;100901.63;;;-5.40;100.00
50867;BME280;36839;51.946;21.002;2024-01-11T01:57:07;100906.35;;;-5.39;100.00
50867;BME280;36839;51.946;21.002;2024-01-11T01:59:56;100896.29;;;-5.41;100.00
50867;BME280;36839;51.946;21.002;2024-01-11T02:02:39;100892.98;;;-5.42;100.00
50867;BME280;36839;51.946;21.002;2024-01-11T02:05:51;100893.44;;;-5.43;100.00
50867;BME280;36839;51.946;21.002;2024-01-11T02:08:35;100867.46;;;-5.47;100.00
50867;BME280;36839;51.946;21.002;2024-01-11T02:11:31;100865.61;;;-5.48;100.00
50867;BME280;36839;51.946;21.002;2024-01-11T02:14:18;100852.69;;;-5.48;100.00
50867;BME280;36839;51.946;21.002;2024-01-11T02:20:18;100823.11;;;-5.48;100.00
50867;BME280;36839;51.946;21.002;2024-01-11T02:23:08;100821.27;;;-5.48;100.00
50867;BME280;36839;51.946;21.002;2024-01-11T02:25:52;100829.55;;;-5.47;100.00
50867;BME280;36839;51.946;21.002;2024-01-11T02:28:25;100826.43;;;-5.46;100.00
50867;BME280;36839;51.946;21.002;2024-01-11T02:31:18;100818.29;;;-5.45;100.00
50867;BME280;36839;51.946;21.002;2024-01-11T02:34:09;100827.80;;;-5.47;100.00
50867;BME280;36839;51.946;21.002;2024-01-11T02:40:29;100832.64;;;-5.47;100.00
50867;BME280;36839;51.946;21.002;2024-01-11T02:43:23;100828.18;;;-5.45;100.00
50867;BME280;36839;51.946;21.002;2024-01-11T02:46:20;100815.09;;;-5.45;100.00
50867;BME280;36839;51.946;21.002;2024-01-11T02:49:28;100826.95;;;-5.49;100.00
50867;BME280;36839;51.946;21.002;2024-01-11T02:52:06;100836.21;;;-5.49;100.00
50867;BME280;36839;51.946;21.002;2024-01-11T02:54:54;100832.91;;;-5.50;100.00
50867;BME280;36839;51.946;21.002;2024-01-11T03:00:29;100838.12;;;-5.57;100.00
50867;BME280;36839;51.946;21.002;2024-01-11T03:03:15;100836.02;;;-5.57;100.00
50867;BME280;36839;51.946;21.002;2024-01-11T03:05:49;100835.63;;;-5.59;100.00
50867;BME280;36839;51.946;21.002;2024-01-11T03:08:35;100825.13;;;-5.62;100.00
50867;BME280;36839;51.946;21.002;2024-01-11T03:11:25;100812.24;;;-5.62;100.00
50867;BME280;36839;51.946;21.002;2024-01-11T03:14:50;100788.45;;;-5.64;100.00
50867;BME280;36839;51.946;21.002;2024-01-11T03:17:31;100789.80;;;-5.69;100.00
50867;BME280;36839;51.946;21.002;2024-01-11T03:20:29;100794.78;;;-5.72;100.00
50867;BME280;36839;51.946;21.002;2024-01-11T03:23:05;100824.02;;;-5.72;100.00
50867;BME280;36839;51.946;21.002;2024-01-11T03:25:44;100833.92;;;-5.67;100.00
50867;BME280;36839;51.946;21.002;2024-01-11T03:28:27;100824.19;;;-5.61;100.00
50867;BME280;36839;51.946;21.002;2024-01-11T03:31:15;100823.83;;;-5.59;100.00
50867;BME280;36839;51.946;21.002;2024-01-11T03:33:50;100819.65;;;-5.57;100.00
50867;BME280;36839;51.946;21.002;2024-01-11T03:36:43;100825.92;;;-5.55;100.00
50867;BME280;36839;51.946;21.002;2024-01-11T03:39:36;100821.59;;;-5.58;100.00
50867;BME280;36839;51.946;21.002;2024-01-11T03:42:52;100810.66;;;-5.59;100.00
50867;BME280;36839;51.946;21.002;2024-01-11T03:45:38;100810.52;;;-5.68;100.00
50867;BME280;36839;51.946;21.002;2024-01-11T03:49:00;100825.31;;;-5.73;100.00
50867;BME280;36839;51.946;21.002;2024-01-11T03:52:06;100807.96;;;-5.77;100.00
50867;BME280;36839;51.946;21.002;2024-01-11T03:55:03;100789.08;;;-5.80;100.00
50867;BME280;36839;51.946;21.002;2024-01-11T03:57:57;100797.77;;;-5.82;100.00
50867;BME280;36839;51.946;21.002;2024-01-11T04:00:54;100780.91;;;-5.89;100.00
50867;BME280;36839;51.946;21.002;2024-01-11T04:03:26;100766.56;;;-5.98;100.00
50867;BME280;36839;51.946;21.002;2024-01-11T04:06:36;100766.72;;;-6.04;100.00
50867;BME280;36839;51.946;21.002;2024-01-11T04:09:16;100769.84;;;-6.08;100.00
50867;BME280;36839;51.946;21.002;2024-01-11T04:12:18;100771.84;;;-6.16;100.00
50867;BME280;36839;51.946;21.002;2024-01-11T04:15:06;100747.92;;;-6.20;100.00
50867;BME280;36839;51.946;21.002;2024-01-11T04:17:59;100745.95;;;-6.26;100.00
50867;BME280;36839;51.946;21.002;2024-01-11T04:21:19;100738.96;;;-6.29;100.00
50867;BME280;36839;51.946;21.002;2024-01-11T04:24:02;100757.95;;;-6.31;100.00
50867;BME280;36839;51.946;21.002;2024-01-11T04:26:41;100744.08;;;-6.34;100.00
50867;BME280;36839;51.946;21.002;2024-01-11T04:31:59;100728.38;;;-6.39;100.00
50867;BME280;36839;51.946;21.002;2024-01-11T04:34:36;100762.95;;;-6.44;100.00
50867;BME280;36839;51.946;21.002;2024-01-11T04:37:27;100780.30;;;-6.46;100.00
50867;BME280;36839;51.946;21.002;2024-01-11T04:40:45;100761.07;;;-6.45;100.00
50867;BME280;36839;51.946;21.002;2024-01-11T04:43:30;100774.65;;;-6.48;100.00
50867;BME280;36839;51.946;21.002;2024-01-11T04:46:26;100778.64;;;-6.51;100.00
50867;BME280;36839;51.946;21.002;2024-01-11T04:49:13;100782.20;;;-6.52;100.00
50867;BME280;36839;51.946;21.002;2024-01-11T04:52:03;100781.45;;;-6.54;100.00
50867;BME280;36839;51.946;21.002;2024-01-11T04:54:56;100768.63;;;-6.53;100.00
50867;BME280;36839;51.946;21.002;2024-01-11T04:57:44;100760.80;;;-6.53;100.00
50867;BME280;36839;51.946;21.002;2024-01-11T05:00:45;100763.97;;;-6.53;100.00
50867;BME280;36839;51.946;21.002;2024-01-11T05:03:34;100756.92;;;-6.52;100.00
50867;BME280;36839;51.946;21.002;2024-01-11T05:06:24;100760.52;;;-6.50;100.00
50867;BME280;36839;51.946;21.002;2024-01-11T05:12:14;100760.90;;;-6.49;100.00
50867;BME280;36839;51.946;21.002;2024-01-11T05:14:56;100765.00;;;-6.48;100.00
50867;BME280;36839;51.946;21.002;2024-01-11T05:17:56;100750.85;;;-6.49;100.00
50867;BME280;36839;51.946;21.002;2024-01-11T05:21:03;100751.66;;;-6.48;100.00
50867;BME280;36839;51.946;21.002;2024-01-11T05:23:47;100754.05;;;-6.48;100.00
50867;BME280;36839;51.946;21.002;2024-01-11T05:26:39;100752.83;;;-6.52;100.00
50867;BME280;36839;51.946;21.002;2024-01-11T05:29:18;100747.77;;;-6.50;100.00
50867;BME280;36839;51.946;21.002;2024-01-11T05:32:01;100745.49;;;-6.47;100.00
50867;BME280;36839;51.946;21.002;2024-01-11T05:34:38;100739.58;;;-6.43;100.00
50867;BME280;36839;51.946;21.002;2024-01-11T05:37:31;100739.47;;;-6.44;100.00
50867;BME280;36839;51.946;21.002;2024-01-11T05:40:41;100733.15;;;-6.42;100.00
50867;BME280;36839;51.946;21.002;2024-01-11T05:43:41;100725.21;;;-6.39;100.00
50867;BME280;36839;51.946;21.002;2024-01-11T05:46:39;100724.09;;;-6.41;100.00
50867;BME280;36839;51.946;21.002;2024-01-11T05:49:39;100709.11;;;-6.40;100.00
50867;BME280;36839;51.946;21.002;2024-01-11T05:52:48;100706.26;;;-6.40;100.00
50867;BME280;36839;51.946;21.002;2024-01-11T05:55:40;100710.67;;;-6.39;100.00
50867;BME280;36839;51.946;21.002;2024-01-11T05:58:21;100706.11;;;-6.38;100.00
50867;BME280;36839;51.946;21.002;2024-01-11T06:01:28;100706.70;;;-6.35;100.00
50867;BME280;36839;51.946;21.002;2024-01-11T06:04:43;100695.54;;;-6.29;100.00
50867;BME280;36839;51.946;21.002;2024-01-11T06:10:23;100688.44;;;-6.26;100.00
50867;BME280;36839;51.946;21.002;2024-01-11T06:13:29;100677.36;;;-6.24;100.00
50867;BME280;36839;51.946;21.002;2024-01-11T06:16:17;100677.19;;;-6.21;100.00
50867;BME280;36839;51.946;21.002;2024-01-11T06:19:04;100671.41;;;-6.19;100.00
50867;BME280;36839;51.946;21.002;2024-01-11T06:21:59;100663.10;;;-6.18;100.00
50867;BME280;36839;51.946;21.002;2024-01-11T06:24:53;100656.84;;;-6.14;100.00
50867;BME280;36839;51.946;21.002;2024-01-11T06:28:02;100651.58;;;-6.12;100.00
50867;BME280;36839;51.946;21.002;2024-01-11T06:34:38;100653.91;;;-6.09;100.00
50867;BME280;36839;51.946;21.002;2024-01-11T06:37:42;100651.95;;;-6.05;100.00
50867;BME280;36839;51.946;21.002;2024-01-11T06:40:27;100650.61;;;-6.00;100.00
50867;BME280;36839;51.946;21.002;2024-01-11T06:43:15;100647.64;;;-5.98;100.00
50867;BME280;36839;51.946;21.002;2024-01-11T06:46:06;100653.82;;;-5.93;100.00
50867;BME280;36839;51.946;21.002;2024-01-11T06:48:47;100661.39;;;-5.92;100.00
50867;BME280;36839;51.946;21.002;2024-01-11T06:51:54;100652.55;;;-5.88;100.00
50867;BME280;36839;51.946;21.002;2024-01-11T06:54:35;100641.91;;;-5.84;100.00
50867;BME280;36839;51.946;21.002;2024-01-11T06:57:12;100631.30;;;-5.78;100.00
50867;BME280;36839;51.946;21.002;2024-01-11T07:00:34;100629.45;;;-5.74;100.00
50867;BME280;36839;51.946;21.002;2024-01-11T07:03:54;100627.04;;;-5.70;100.00
50867;BME280;36839;51.946;21.002;2024-01-11T07:06:51;100618.23;;;-5.64;100.00
50867;BME280;36839;51.946;21.002;2024-01-11T07:10:26;100609.70;;;-5.62;100.00
50867;BME280;36839;51.946;21.002;2024-01-11T07:13:25;100620.86;;;-5.54;100.00
50867;BME280;36839;51.946;21.002;2024-01-11T07:19:25;100627.66;;;-5.46;100.00
50867;BME280;36839;51.946;21.002;2024-01-11T07:22:16;100624.88;;;-5.43;100.00
50867;BME280;36839;51.946;21.002;2024-01-11T07:28:36;100609.77;;;-5.35;100.00
50867;BME280;36839;51.946;21.002;2024-01-11T07:34:21;100623.23;;;-5.29;100.00
50867;BME280;36839;51.946;21.002;2024-01-11T07:37:28;100619.34;;;-5.27;100.00
50867;BME280;36839;51.946;21.002;2024-01-11T07:40:17;100614.15;;;-5.22;100.00
50867;BME280;36839;51.946;21.002;2024-01-11T07:46:16;100612.88;;;-5.14;100.00
50867;BME280;36839;51.946;21.002;2024-01-11T07:49:14;100616.77;;;-5.12;100.00
50867;BME280;36839;51.946;21.002;2024-01-11T07:52:13;100605.15;;;-5.07;100.00
50867;BME280;36839;51.946;21.002;2024-01-11T07:58:57;100616.55;;;-4.98;100.00
50867;BME280;36839;51.946;21.002;2024-01-11T08:01:49;100603.19;;;-4.96;100.00
50867;BME280;36839;51.946;21.002;2024-01-11T08:04:42;100607.73;;;-4.83;100.00
50867;BME280;36839;51.946;21.002;2024-01-11T08:07:29;100618.15;;;-4.86;100.00
50867;BME280;36839;51.946;21.002;2024-01-11T08:13:09;100627.31;;;-4.87;100.00
50867;BME280;36839;51.946;21.002;2024-01-11T08:16:03;100643.94;;;-4.87;100.00
50867;BME280;36839;51.946;21.002;2024-01-11T08:19:04;100638.93;;;-4.87;100.00
50867;BME280;36839;51.946;21.002;2024-01-11T08:25:08;100640.42;;;-4.86;100.00
50867;BME280;36839;51.946;21.002;2024-01-11T08:28:11;100641.92;;;-4.88;100.00
50867;BME280;36839;51.946;21.002;2024-01-11T08:31:27;100650.61;;;-4.89;100.00
50867;BME280;36839;51.946;21.002;2024-01-11T08:34:53;100649.41;;;-4.86;100.00
50867;BME280;36839;51.946;21.002;2024-01-11T08:37:42;100648.77;;;-4.80;100.00
50867;BME280;36839;51.946;21.002;2024-01-11T08:40:55;100639.70;;;-4.74;100.00
50867;BME280;36839;51.946;21.002;2024-01-11T08:43:37;100642.59;;;-4.74;100.00
50867;BME280;36839;51.946;21.002;2024-01-11T08:46:49;100646.88;;;-4.74;100.00
50867;BME280;36839;51.946;21.002;2024-01-11T08:49:35;100643.07;;;-4.73;100.00
50867;BME280;36839;51.946;21.002;2024-01-11T08:52:14;100644.68;;;-4.72;100.00
50867;BME280;36839;51.946;21.002;2024-01-11T09:01:08;100659.40;;;-4.63;100.00
50867;BME280;36839;51.946;21.002;2024-01-11T09:04:15;100661.80;;;-4.60;100.00
50867;BME280;36839;51.946;21.002;2024-01-11T09:07:16;100661.40;;;-4.60;100.00
50867;BME280;36839;51.946;21.002;2024-01-11T09:10:13;100654.77;;;-4.57;100.00
50867;BME280;36839;51.946;21.002;2024-01-11T09:12:56;100647.79;;;-4.54;100.00
50867;BME280;36839;51.946;21.002;2024-01-11T09:16:30;100639.70;;;-4.50;100.00
50867;BME280;36839;51.946;21.002;2024-01-11T09:19:11;100636.02;;;-4.46;100.00
50867;BME280;36839;51.946;21.002;2024-01-11T09:21:54;100636.40;;;-4.43;100.00
50867;BME280;36839;51.946;21.002;2024-01-11T09:24:46;100627.41;;;-4.38;100.00
50867;BME280;36839;51.946;21.002;2024-01-11T09:27:59;100625.18;;;-4.32;100.00
50867;BME280;36839;51.946;21.002;2024-01-11T09:30:44;100627.09;;;-4.21;100.00
50867;BME280;36839;51.946;21.002;2024-01-11T09:33:20;100619.02;;;-4.17;100.00
50867;BME280;36839;51.946;21.002;2024-01-11T09:36:09;100618.04;;;-4.11;100.00
50867;BME280;36839;51.946;21.002;2024-01-11T09:39:06;100615.36;;;-4.06;100.00
50867;BME280;36839;51.946;21.002;2024-01-11T09:42:12;100607.71;;;-3.95;100.00
50867;BME280;36839;51.946;21.002;2024-01-11T09:45:44;100599.90;;;-3.88;100.00
50867;BME280;36839;51.946;21.002;2024-01-11T09:48:30;100595.26;;;-3.87;100.00
50867;BME280;36839;51.946;21.002;2024-01-11T09:51:22;100583.33;;;-3.80;100.00
50867;BME280;36839;51.946;21.002;2024-01-11T10:00:34;100579.29;;;-3.61;100.00
50867;BME280;36839;51.946;21.002;2024-01-11T10:03:45;100580.05;;;-3.52;100.00
50867;BME280;36839;51.946;21.002;2024-01-11T10:06:28;100565.63;;;-3.44;100.00
50867;BME280;36839;51.946;21.002;2024-01-11T10:09:31;100558.45;;;-3.34;100.00
50867;BME280;36839;51.946;21.002;2024-01-11T10:12:17;100553.66;;;-3.33;100.00
50867;BME280;36839;51.946;21.002;2024-01-11T10:15:21;100553.56;;;-3.32;100.00
50867;BME280;36839;51.946;21.002;2024-01-11T10:22:24;100544.73;;;-3.24;100.00
50867;BME280;36839;51.946;21.002;2024-01-11T10:25:52;100542.80;;;-3.12;100.00
50867;BME280;36839;51.946;21.002;2024-01-11T10:31:38;100527.85;;;-3.26;100.00
50867;BME280;36839;51.946;21.002;2024-01-11T10:34:35;100533.47;;;-3.28;100.00
50867;BME280;36839;51.946;21.002;2024-01-11T10:37:44;100529.39;;;-3.30;100.00
50867;BME280;36839;51.946;21.002;2024-01-11T10:40:30;100527.12;;;-3.29;100.00
50867;BME280;36839;51.946;21.002;2024-01-11T10:43:22;100532.39;;;-3.28;100.00
50867;BME280;36839;51.946;21.002;2024-01-11T10:49:56;100526.39;;;-3.13;100.00
50867;BME280;36839;51.946;21.002;2024-01-11T10:55:47;100527.94;;;-3.00;100.00
50867;BME280;36839;51.946;21.002;2024-01-11T11:02:25;100524.19;;;-3.00;100.00
50867;BME280;36839;51.946;21.002;2024-01-11T11:05:56;100521.38;;;-3.11;100.00
50867;BME280;36839;51.946;21.002;2024-01-11T11:09:32;100523.36;;;-3.17;100.00
50867;BME280;36839;51.946;21.002;2024-01-11T11:12:44;100516.84;;;-3.21;100.00
50867;BME280;36839;51.946;21.002;2024-01-11T11:16:09;100502.05;;;-3.15;100.00
50867;BME280;36839;51.946;21.002;2024-01-11T11:19:41;100502.79;;;-3.11;100.00
50867;BME280;36839;51.946;21.002;2024-01-11T11:26:46;100490.01;;;-3.04;100.00
50867;BME280;36839;51.946;21.002;2024-01-11T11:30:04;100483.77;;;-3.06;100.00
50867;BME280;36839;51.946;21.002;2024-01-11T11:33:26;100477.60;;;-3.01;100.00
50867;BME280;36839;51.946;21.002;2024-01-11T11:46:00;100476.12;;;-2.93;100.00
50867;BME280;36839;51.946;21.002;2024-01-11T11:51:50;100471.02;;;-2.93;100.00
50867;BME280;36839;51.946;21.002;2024-01-11T11:55:19;100467.72;;;-3.01;100.00
50867;BME280;36839;51.946;21.002;2024-01-11T12:13:49;100455.80;;;-2.86;100.00
50867;BME280;36839;51.946;21.002;2024-01-11T12:16:38;100451.59;;;-2.91;100.00
50867;BME280;36839;51.946;21.002;2024-01-11T12:19:49;100454.77;;;-2.94;100.00
50867;BME280;36839;51.946;21.002;2024-01-11T12:22:47;100450.14;;;-2.94;100.00
50867;BME280;36839;51.946;21.002;2024-01-11T12:25:24;100449.05;;;-2.91;100.00
50867;BME280;36839;51.946;21.002;2024-01-11T12:28:09;100444.27;;;-2.92;100.00
50867;BME280;36839;51.946;21.002;2024-01-11T12:30:53;100455.95;;;-2.95;100.00
50867;BME280;36839;51.946;21.002;2024-01-11T12:39:40;100437.80;;;-2.95;100.00
50867;BME280;36839;51.946;21.002;2024-01-11T12:42:29;100426.91;;;-2.96;100.00
50867;BME280;36839;51.946;21.002;2024-01-11T12:49:00;100454.50;;;-2.89;100.00
50867;BME280;36839;51.946;21.002;2024-01-11T12:51:56;100458.49;;;-2.89;100.00
50867;BME280;36839;51.946;21.002;2024-01-11T12:54:55;100453.77;;;-2.84;100.00
50867;BME280;36839;51.946;21.002;2024-01-11T12:57:49;100455.25;;;-2.82;100.00
50867;BME280;36839;51.946;21.002;2024-01-11T13:00:27;100443.17;;;-2.75;100.00
50867;BME280;36839;51.946;21.002;2024-01-11T13:03:33;100441.84;;;-2.68;100.00
50867;BME280;36839;51.946;21.002;2024-01-11T13:06:53;100448.05;;;-2.64;100.00
50867;BME280;36839;51.946;21.002;2024-01-11T13:10:09;100457.33;;;-2.54;100.00
50867;BME280;36839;51.946;21.002;2024-01-11T13:12:46;100444.08;;;-2.53;100.00
50867;BME280;36839;51.946;21.002;2024-01-11T13:18:55;100435.66;;;-2.49;100.00
50867;BME280;36839;51.946;21.002;2024-01-11T13:22:18;100424.41;;;-2.44;100.00
50867;BME280;36839;51.946;21.002;2024-01-11T13:24:57;100427.95;;;-2.40;100.00
50867;BME280;36839;51.946;21.002;2024-01-11T13:28:12;100433.02;;;-2.36;100.00
50867;BME280;36839;51.946;21.002;2024-01-11T13:31:16;100419.94;;;-2.32;100.00
50867;BME280;36839;51.946;21.002;2024-01-11T13:34:26;100422.36;;;-2.27;100.00
50867;BME280;36839;51.946;21.002;2024-01-11T13:37:20;100410.28;;;-2.25;100.00
50867;BME280;36839;51.946;21.002;2024-01-11T13:40:13;100420.47;;;-2.23;100.00
50867;BME280;36839;51.946;21.002;2024-01-11T13:43:23;100420.36;;;-2.22;100.00
50867;BME280;36839;51.946;21.002;2024-01-11T13:46:39;100416.03;;;-2.19;100.00
50867;BME280;36839;51.946;21.002;2024-01-11T13:49:31;100413.77;;;-2.20;100.00
50867;BME280;36839;51.946;21.002;2024-01-11T13:52:18;100414.89;;;-2.18;100.00
50867;BME280;36839;51.946;21.002;2024-01-11T13:55:16;100417.79;;;-2.19;100.00
50867;BME280;36839;51.946;21.002;2024-01-11T13:58:40;100412.21;;;-2.14;100.00
50867;BME280;36839;51.946;21.002;2024-01-11T14:01:29;100410.64;;;-2.13;100.00
50867;BME280;36839;51.946;21.002;2024-01-11T14:04:03;100407.55;;;-2.15;100.00
50867;BME280;36839;51.946;21.002;2024-01-11T14:06:41;100398.27;;;-2.11;100.00
50867;BME280;36839;51.946;21.002;2024-01-11T14:09:36;100392.17;;;-2.10;100.00
50867;BME280;36839;51.946;21.002;2024-01-11T14:15:43;100392.38;;;-2.02;100.00
50867;BME280;36839;51.946;21.002;2024-01-11T14:18:35;100388.17;;;-1.97;100.00
50867;BME280;36839;51.946;21.002;2024-01-11T14:21:37;100400.48;;;-1.95;100.00
50867;BME280;36839;51.946;21.002;2024-01-11T14:24:22;100391.80;;;-1.93;100.00
50867;BME280;36839;51.946;21.002;2024-01-11T14:26:59;100388.91;;;-1.94;100.00
50867;BME280;36839;51.946;21.002;2024-01-11T14:29:47;100385.82;;;-1.91;100.00
50867;BME280;36839;51.946;21.002;2024-01-11T14:32:53;100381.48;;;-1.76;100.00
50867;BME280;36839;51.946;21.002;2024-01-11T14:35:51;100381.50;;;-1.78;100.00
50867;BME280;36839;51.946;21.002;2024-01-11T14:39:10;100384.89;;;-1.81;100.00
50867;BME280;36839;51.946;21.002;2024-01-11T14:42:48;100405.71;;;-1.84;100.00
50867;BME280;36839;51.946;21.002;2024-01-11T14:45:51;100404.70;;;-1.82;100.00
50867;BME280;36839;51.946;21.002;2024-01-11T14:51:54;100403.16;;;-1.80;100.00
50867;BME280;36839;51.946;21.002;2024-01-11T14:55:00;100408.20;;;-1.75;100.00
50867;BME280;36839;51.946;21.002;2024-01-11T14:57:42;100406.98;;;-1.71;100.00
50867;BME280;36839;51.946;21.002;2024-01-11T15:00:18;100415.30;;;-1.68;100.00
50867;BME280;36839;51.946;21.002;2024-01-11T15:03:26;100410.34;;;-1.64;100.00
50867;BME280;36839;51.946;21.002;2024-01-11T15:05:54;100410.40;;;-1.63;100.00
50867;BME280;36839;51.946;21.002;2024-01-11T15:08:54;100402.92;;;-1.61;100.00
50867;BME280;36839;51.946;21.002;2024-01-11T15:11:57;100405.22;;;-1.59;100.00
50867;BME280;36839;51.946;21.002;2024-01-11T15:14:46;100425.52;;;-1.56;100.00
50867;BME280;36839;51.946;21.002;2024-01-11T15:17:39;100429.93;;;-1.52;100.00
50867;BME280;36839;51.946;21.002;2024-01-11T15:20:47;100419.77;;;-1.50;100.00
50867;BME280;36839;51.946;21.002;2024-01-11T15:24:10;100433.77;;;-1.46;100.00
50867;BME280;36839;51.946;21.002;2024-01-11T15:27:09;100428.23;;;-1.42;100.00
50867;BME280;36839;51.946;21.002;2024-01-11T15:30:19;100433.08;;;-1.39;100.00
50867;BME280;36839;51.946;21.002;2024-01-11T15:33:13;100435.06;;;-1.38;100.00
50867;BME280;36839;51.946;21.002;2024-01-11T15:35:52;100442.31;;;-1.37;100.00
50867;BME280;36839;51.946;21.002;2024-01-11T15:38:39;100442.48;;;-1.38;100.00
50867;BME280;36839;51.946;21.002;2024-01-11T15:41:14;100450.66;;;-1.37;100.00
50867;BME280;36839;51.946;21.002;2024-01-11T15:43:47;100451.05;;;-1.36;100.00
50867;BME280;36839;51.946;21.002;2024-01-11T15:46:22;100450.95;;;-1.36;100.00
50867;BME280;36839;51.946;21.002;2024-01-11T15:48:55;100446.84;;;-1.35;100.00
50867;BME280;36839;51.946;21.002;2024-01-11T15:51:54;100444.86;;;-1.32;100.00
50867;BME280;36839;51.946;21.002;2024-01-11T15:54:59;100446.61;;;-1.29;100.00
50867;BME280;36839;51.946;21.002;2024-01-11T15:58:04;100445.75;;;-1.26;100.00
50867;BME280;36839;51.946;21.002;2024-01-11T16:00:39;100449.56;;;-1.25;100.00
50867;BME280;36839;51.946;21.002;2024-01-11T16:03:23;100456.80;;;-1.23;100.00
50867;BME280;36839;51.946;21.002;2024-01-11T16:06:41;100461.41;;;-1.23;100.00
50867;BME280;36839;51.946;21.002;2024-01-11T16:09:44;100465.41;;;-1.23;100.00
50867;BME280;36839;51.946;21.002;2024-01-11T16:12:41;100459.09;;;-1.22;100.00
50867;BME280;36839;51.946;21.002;2024-01-11T16:15:34;100458.77;;;-1.21;100.00
50867;BME280;36839;51.946;21.002;2024-01-11T16:18:57;100453.66;;;-1.19;100.00
50867;BME280;36839;51.946;21.002;2024-01-11T16:21:47;100454.27;;;-1.19;100.00
50867;BME280;36839;51.946;21.002;2024-01-11T16:24:25;100454.65;;;-1.19;100.00
50867;BME280;36839;51.946;21.002;2024-01-11T16:27:00;100455.56;;;-1.20;100.00
50867;BME280;36839;51.946;21.002;2024-01-11T16:30:00;100450.45;;;-1.18;100.00
50867;BME280;36839;51.946;21.002;2024-01-11T16:32:50;100454.03;;;-1.19;100.00
50867;BME280;36839;51.946;21.002;2024-01-11T16:36:12;100460.70;;;-1.19;100.00
50867;BME280;36839;51.946;21.002;2024-01-11T16:38:51;100464.15;;;-1.07;100.00
50867;BME280;36839;51.946;21.002;2024-01-11T16:41:42;100454.80;;;-1.07;100.00
50867;BME280;36839;51.946;21.002;2024-01-11T16:44:46;100458.34;;;-1.11;100.00
50867;BME280;36839;51.946;21.002;2024-01-11T16:47:58;100450.98;;;-1.13;100.00
50867;BME280;36839;51.946;21.002;2024-01-11T16:54:42;100453.59;;;-1.12;100.00
50867;BME280;36839;51.946;21.002;2024-01-11T16:57:53;100451.24;;;-1.12;100.00
50867;BME280;36839;51.946;21.002;2024-01-11T17:01:23;100454.40;;;-1.10;100.00
50867;BME280;36839;51.946;21.002;2024-01-11T17:04:13;100458.63;;;-1.08;100.00
50867;BME280;36839;51.946;21.002;2024-01-11T17:07:27;100458.86;;;-1.05;100.00
50867;BME280;36839;51.946;21.002;2024-01-11T17:10:26;100465.46;;;-1.04;100.00